createdAt,value
2018-03-17T00:00:23.333Z,96.70
2018-03-17T00:02:51.556Z,96.60
2018-03-17T00:05:19.771Z,96.60
2018-03-17T00:07:49.026Z,96.80
2018-03-17T00:10:17.307Z,96.80
2018-03-17T00:12:46.683Z,96.70
2018-03-17T00:15:14.869Z,96.70
2018-03-17T00:17:43.099Z,96.60
2018-03-17T00:20:12.146Z,96.50
2018-03-17T00:22:40.415Z,96.50
2018-03-17T00:25:08.652Z,96.50
2018-03-17T00:27:37.621Z,96.20
2018-03-17T00:30:05.865Z,96.20
2018-03-17T00:32:34.112Z,96.30
2018-03-17T00:35:02.723Z,96.00
2018-03-17T00:37:30.926Z,96.50
2018-03-17T00:39:59.215Z,96.10
2018-03-17T00:42:28.207Z,96.40
2018-03-17T00:44:57.215Z,96.10
2018-03-17T00:47:26.241Z,95.70
2018-03-17T00:49:55.374Z,95.80
2018-03-17T00:52:23.572Z,95.80
2018-03-17T00:54:52.566Z,95.80
2018-03-17T00:57:21.589Z,95.70
2018-03-17T00:59:49.952Z,95.70
2018-03-17T01:02:18.217Z,95.60
2018-03-17T01:04:47.556Z,95.80
2018-03-17T01:07:15.812Z,95.80
2018-03-17T01:09:44.804Z,95.80
2018-03-17T01:12:13.119Z,95.80
2018-03-17T01:14:41.363Z,95.80
2018-03-17T01:17:10.429Z,95.80
2018-03-17T01:19:38.609Z,95.40
2018-03-17T01:22:07.586Z,95.50
2018-03-17T01:24:35.889Z,95.50
2018-03-17T01:27:04.245Z,95.50
2018-03-17T01:29:33.264Z,95.30
2018-03-17T01:32:01.542Z,95.40
2018-03-17T01:34:29.749Z,95.00
2018-03-17T01:36:57.950Z,95.40
2018-03-17T01:39:26.197Z,94.90
2018-03-17T01:41:54.417Z,94.80
2018-03-17T01:44:22.613Z,94.80
2018-03-17T01:46:50.887Z,94.80
2018-03-17T01:49:21.093Z,94.70
2018-03-17T01:51:50.069Z,94.90
2018-03-17T01:54:30.122Z,94.90
2018-03-17T01:56:58.324Z,94.80
2018-03-17T01:59:27.343Z,95.50
2018-03-17T02:01:55.632Z,95.50
2018-03-17T02:04:23.849Z,94.80
2018-03-17T02:06:52.233Z,94.70
2018-03-17T02:09:20.441Z,94.60
2018-03-17T02:11:48.634Z,94.50
2018-03-17T02:14:16.864Z,94.50
2018-03-17T02:16:45.858Z,94.40
2018-03-17T02:19:14.853Z,94.40
2018-03-17T02:21:43.833Z,94.50
2018-03-17T02:24:12.605Z,94.50
2018-03-17T02:26:40.804Z,95.00
2018-03-17T02:29:09.019Z,95.10
2018-03-17T02:31:37.266Z,94.90
2018-03-17T02:34:06.267Z,94.30
2018-03-17T02:36:35.282Z,94.70
2018-03-17T02:39:03.513Z,94.70
2018-03-17T02:41:32.540Z,94.30
2018-03-17T02:44:00.696Z,94.40
2018-03-17T02:46:29.746Z,94.70
2018-03-17T02:48:57.969Z,94.70
2018-03-17T02:51:26.996Z,94.80
2018-03-17T02:53:55.255Z,94.80
2018-03-17T02:56:23.464Z,94.80
2018-03-17T02:58:51.704Z,94.90
2018-03-17T03:01:19.973Z,94.60
2018-03-17T03:03:48.937Z,94.90
2018-03-17T03:06:17.129Z,94.90
2018-03-17T03:08:48.577Z,95.00
2018-03-17T03:11:16.774Z,95.00
2018-03-17T03:13:44.981Z,95.20
2018-03-17T03:16:13.388Z,95.30
2018-03-17T03:18:41.583Z,95.40
2018-03-17T03:21:10.581Z,96.30
2018-03-17T03:23:38.824Z,96.30
2018-03-17T03:26:07.048Z,96.30
2018-03-17T03:28:36.014Z,96.10
2018-03-17T03:31:04.253Z,96.10
2018-03-17T03:33:32.473Z,96.30
2018-03-17T03:36:00.684Z,96.10
2018-03-17T03:38:28.959Z,96.80
2018-03-17T03:40:57.160Z,96.30
2018-03-17T03:43:25.369Z,96.40
2018-03-17T03:45:54.429Z,96.30
2018-03-17T03:48:22.653Z,96.30
2018-03-17T03:50:50.904Z,96.10
2018-03-17T03:53:20.384Z,95.90
2018-03-17T03:55:49.626Z,96.20
2018-03-17T03:58:18.596Z,96.00
2018-03-17T04:00:46.861Z,96.00
2018-03-17T04:03:15.062Z,96.00
2018-03-17T04:05:44.024Z,95.60
2018-03-17T04:08:12.300Z,95.50
2018-03-17T04:10:40.537Z,95.60
2018-03-17T04:13:08.852Z,95.60
2018-03-17T04:15:37.122Z,95.70
2018-03-17T04:18:05.366Z,95.60
2018-03-17T04:20:33.602Z,95.40
2018-03-17T04:23:02.621Z,95.50
2018-03-17T04:25:31.627Z,95.80
2018-03-17T04:27:59.874Z,95.80
2018-03-17T04:30:28.136Z,95.60
2018-03-17T04:32:56.379Z,95.50
2018-03-17T04:35:24.572Z,95.20
2018-03-17T04:37:52.880Z,95.20
2018-03-17T04:40:21.840Z,95.30
2018-03-17T04:42:50.089Z,95.30
2018-03-17T04:45:18.400Z,95.20
2018-03-17T04:47:46.664Z,95.20
2018-03-17T04:50:14.938Z,95.10
2018-03-17T04:52:43.200Z,95.20
2018-03-17T04:55:11.444Z,94.60
2018-03-17T04:57:39.666Z,94.90
2018-03-17T05:00:08.773Z,95.30
2018-03-17T05:02:36.997Z,95.10
2018-03-17T05:05:05.267Z,95.00
2018-03-17T05:07:33.506Z,94.90
2018-03-17T05:10:01.733Z,95.00
2018-03-17T05:12:29.945Z,95.10
2018-03-17T05:14:58.176Z,94.70
2018-03-17T05:17:26.387Z,95.20
2018-03-17T05:19:54.594Z,94.90
2018-03-17T05:22:23.684Z,94.30
2018-03-17T05:24:51.902Z,94.20
2018-03-17T05:27:20.128Z,94.40
2018-03-17T05:29:48.376Z,94.30
2018-03-17T05:32:16.635Z,94.40
2018-03-17T05:34:44.828Z,94.80
2018-03-17T05:37:13.071Z,94.20
2018-03-17T05:39:41.373Z,94.20
2018-03-17T05:42:09.606Z,94.40
2018-03-17T05:44:38.717Z,94.10
2018-03-17T05:47:06.938Z,94.10
2018-03-17T05:49:35.153Z,94.00
2018-03-17T05:52:04.209Z,94.00
2018-03-17T05:54:32.417Z,94.00
2018-03-17T05:57:04.992Z,94.10
2018-03-17T05:59:34.051Z,93.70
2018-03-17T06:02:02.284Z,93.60
2018-03-17T06:04:30.778Z,93.70
2018-03-17T06:06:58.972Z,93.80
2018-03-17T06:09:27.237Z,93.70
2018-03-17T06:11:55.609Z,93.40
2018-03-17T06:14:23.862Z,93.60
2018-03-17T06:16:52.056Z,93.70
2018-03-17T06:19:20.321Z,93.80
2018-03-17T06:21:48.513Z,93.60
2018-03-17T06:24:16.792Z,93.30
2018-03-17T06:26:45.060Z,93.50
2018-03-17T06:29:13.313Z,93.70
2018-03-17T06:31:42.296Z,93.50
2018-03-17T06:34:10.520Z,93.50
2018-03-17T06:36:38.737Z,93.60
2018-03-17T06:39:08.078Z,93.10
2018-03-17T06:41:36.311Z,93.10
2018-03-17T06:44:04.595Z,93.30
2018-03-17T06:46:32.796Z,93.20
2018-03-17T06:49:01.085Z,93.50
2018-03-17T06:51:29.343Z,93.40
2018-03-17T06:53:57.743Z,93.40
2018-03-17T06:59:04.211Z,93.70
2018-03-17T07:01:32.449Z,93.60
2018-03-17T07:04:00.775Z,93.80
2018-03-17T07:06:29.061Z,93.70
2018-03-17T07:08:57.277Z,93.70
2018-03-17T07:11:25.501Z,93.00
2018-03-17T07:13:53.753Z,93.30
2018-03-17T07:16:22.520Z,93.40
2018-03-17T07:18:50.712Z,93.40
2018-03-17T07:21:19.707Z,93.40
2018-03-17T07:23:48.689Z,93.00
2018-03-17T07:26:17.735Z,93.10
2018-03-17T07:28:45.971Z,93.10
2018-03-17T07:31:14.949Z,93.40
2018-03-17T07:33:43.928Z,93.50
2018-03-17T07:36:12.317Z,93.40
2018-03-17T07:38:40.593Z,93.60
2018-03-17T07:41:08.936Z,93.40
2018-03-17T07:43:37.233Z,93.30
2018-03-17T07:46:05.693Z,92.80
2018-03-17T07:48:33.884Z,93.00
2018-03-17T07:51:02.144Z,92.80
2018-03-17T07:53:30.404Z,92.70
2018-03-17T07:55:58.592Z,92.80
2018-03-17T07:58:27.034Z,92.80
2018-03-17T08:00:57.366Z,92.30
2018-03-17T08:03:25.639Z,92.30
2018-03-17T08:05:54.866Z,92.10
2018-03-17T08:08:23.529Z,91.90
2018-03-17T08:10:52.561Z,91.90
2018-03-17T08:13:20.847Z,91.90
2018-03-17T08:15:49.162Z,91.70
2018-03-17T08:18:17.382Z,91.70
2018-03-17T08:20:46.383Z,92.20
2018-03-17T08:23:14.627Z,92.50
2018-03-17T08:25:43.579Z,91.80
2018-03-17T08:28:11.887Z,91.80
2018-03-17T08:30:40.205Z,92.00
2018-03-17T08:33:08.406Z,92.00
2018-03-17T08:35:36.720Z,91.60
2018-03-17T08:38:05.732Z,91.30
2018-03-17T08:40:34.034Z,91.30
2018-03-17T08:43:03.308Z,91.20
2018-03-17T08:45:32.269Z,91.40
2018-03-17T08:48:00.490Z,91.40
2018-03-17T08:50:28.788Z,91.50
2018-03-17T08:52:57.172Z,91.70
2018-03-17T08:55:25.520Z,92.30
2018-03-17T08:57:53.752Z,91.70
2018-03-17T09:00:22.032Z,91.80
2018-03-17T09:02:51.066Z,91.20
2018-03-17T09:05:19.304Z,91.20
2018-03-17T09:07:48.282Z,91.50
2018-03-17T09:10:16.539Z,91.40
2018-03-17T09:12:44.745Z,91.70
2018-03-17T09:15:13.834Z,91.20
2018-03-17T09:17:42.052Z,91.30
2018-03-17T09:20:10.410Z,91.10
2018-03-17T09:22:39.460Z,91.10
2018-03-17T09:25:07.749Z,91.20
2018-03-17T09:27:36.023Z,91.40
2018-03-17T09:30:04.213Z,91.40
2018-03-17T09:32:33.221Z,91.30
2018-03-17T09:35:02.236Z,91.20
2018-03-17T09:37:30.513Z,91.10
2018-03-17T09:39:58.771Z,90.80
2018-03-17T09:42:27.062Z,90.90
2018-03-17T09:44:55.421Z,91.00
2018-03-17T09:47:24.446Z,91.30
2018-03-17T09:49:52.712Z,91.30
2018-03-17T09:52:21.015Z,90.60
2018-03-17T09:54:49.206Z,92.00
2018-03-17T09:57:17.441Z,91.00
2018-03-17T09:59:45.847Z,90.70
2018-03-17T10:02:14.108Z,90.60
2018-03-17T10:04:42.368Z,90.60
2018-03-17T10:07:10.644Z,90.90
2018-03-17T10:09:38.841Z,90.20
2018-03-17T10:12:07.325Z,90.80
2018-03-17T10:14:35.578Z,88.20
2018-03-17T10:17:03.794Z,90.00
2018-03-17T10:19:32.020Z,91.10
2018-03-17T10:22:00.320Z,90.60
2018-03-17T10:24:28.569Z,90.70
2018-03-17T10:26:57.779Z,88.20
2018-03-17T10:29:26.833Z,88.30
2018-03-17T10:34:27.798Z,88.30
2018-03-17T10:36:56.027Z,87.40
2018-03-17T10:39:24.265Z,88.90
2018-03-17T10:41:53.476Z,87.90
2018-03-17T10:44:21.765Z,87.90
2018-03-17T10:46:50.533Z,88.30
2018-03-17T10:49:19.094Z,88.00
2018-03-17T10:51:47.438Z,88.40
2018-03-17T10:54:15.693Z,88.90
2018-03-17T10:56:44.658Z,88.20
2018-03-17T10:59:13.704Z,86.70
2018-03-17T11:01:41.928Z,86.60
2018-03-17T11:04:10.149Z,86.50
2018-03-17T11:06:38.392Z,87.30
2018-03-17T11:09:07.450Z,88.00
2018-03-17T11:11:35.743Z,88.00
2018-03-17T11:14:03.929Z,86.60
2018-03-17T11:16:32.136Z,86.20
2018-03-17T11:19:00.370Z,86.10
2018-03-17T11:21:28.587Z,85.70
2018-03-17T11:23:56.811Z,87.10
2018-03-17T11:26:25.088Z,85.80
2018-03-17T11:28:53.280Z,87.30
2018-03-17T11:31:22.277Z,87.50
2018-03-17T11:33:50.568Z,87.40
2018-03-17T11:36:18.732Z,85.70
2018-03-17T11:38:46.961Z,85.80
2018-03-17T11:41:15.945Z,85.60
2018-03-17T11:43:44.173Z,85.70
2018-03-17T11:46:13.150Z,86.80
2018-03-17T11:48:41.380Z,86.80
2018-03-17T11:51:09.621Z,86.20
2018-03-17T11:53:38.632Z,87.10
2018-03-17T11:56:07.701Z,86.80
2018-03-17T11:58:35.979Z,86.90
2018-03-17T12:01:04.226Z,87.60
2018-03-17T12:03:32.458Z,86.00
2018-03-17T12:06:00.701Z,85.90
2018-03-17T12:08:30.289Z,86.60
2018-03-17T12:10:58.589Z,87.60
2018-03-17T12:13:26.787Z,86.90
2018-03-17T12:15:55.893Z,85.40
2018-03-17T12:18:24.204Z,85.30
2018-03-17T12:20:52.517Z,85.40
2018-03-17T12:23:20.840Z,85.50
2018-03-17T12:25:49.094Z,86.90
2018-03-17T12:28:17.359Z,85.20
2018-03-17T12:30:46.326Z,84.10
2018-03-17T12:33:14.821Z,84.10
2018-03-17T12:35:43.053Z,84.90
2018-03-17T12:38:11.278Z,83.80
2018-03-17T12:40:40.300Z,85.40
2018-03-17T12:43:08.608Z,85.40
2018-03-17T12:45:36.817Z,83.60
2018-03-17T12:48:05.048Z,86.20
2018-03-17T12:50:33.326Z,81.90
2018-03-17T12:53:01.590Z,84.90
2018-03-17T12:55:30.564Z,83.10
2018-03-17T12:57:58.922Z,83.10
2018-03-17T13:00:27.909Z,85.60
2018-03-17T13:02:56.171Z,85.60
2018-03-17T13:05:24.361Z,84.40
2018-03-17T13:07:52.571Z,86.20
2018-03-17T13:10:22.299Z,84.90
2018-03-17T13:12:50.543Z,85.10
2018-03-17T13:15:19.564Z,86.40
2018-03-17T13:17:47.925Z,86.40
2018-03-17T13:20:16.950Z,86.30
2018-03-17T13:22:56.969Z,86.30
2018-03-17T13:25:25.176Z,86.90
2018-03-17T13:28:05.186Z,86.60
2018-03-17T13:30:34.260Z,87.10
2018-03-17T13:33:02.731Z,87.10
2018-03-17T13:35:42.757Z,87.90
2018-03-17T13:38:11.033Z,88.50
2018-03-17T13:40:42.178Z,89.00
2018-03-17T13:43:10.575Z,88.50
2018-03-17T13:45:38.805Z,88.00
2018-03-17T13:48:07.111Z,88.30
2018-03-17T13:50:35.377Z,87.80
2018-03-17T13:53:03.595Z,87.90
2018-03-17T13:55:31.814Z,87.20
2018-03-17T13:58:00.066Z,87.50
2018-03-17T14:00:29.037Z,88.00
2018-03-17T14:02:57.353Z,88.00
2018-03-17T14:05:25.668Z,88.00
2018-03-17T14:07:53.855Z,88.40
2018-03-17T14:12:46.668Z,87.40
2018-03-17T14:15:15.822Z,86.10
2018-03-17T14:17:44.937Z,88.00
2018-03-17T14:20:13.217Z,88.10
2018-03-17T14:22:41.501Z,88.90
2018-03-17T14:25:10.472Z,88.20
2018-03-17T14:27:39.995Z,88.20
2018-03-17T14:30:09.124Z,89.10
2018-03-17T14:32:37.333Z,89.10
2018-03-17T14:35:05.625Z,88.50
2018-03-17T14:37:33.935Z,88.90
2018-03-17T14:40:02.391Z,88.60
2018-03-17T14:42:30.691Z,88.00
2018-03-17T14:44:59.737Z,87.70
2018-03-17T14:47:28.181Z,87.70
2018-03-17T14:49:56.502Z,88.10
2018-03-17T14:52:24.784Z,88.40
2018-03-17T14:54:53.087Z,89.10
2018-03-17T14:57:22.115Z,89.50
2018-03-17T14:59:50.359Z,89.40
2018-03-17T15:02:19.373Z,89.50
2018-03-17T15:04:48.391Z,89.80
2018-03-17T15:07:16.656Z,89.90
2018-03-17T15:09:45.921Z,90.40
2018-03-17T15:12:17.372Z,90.00
2018-03-17T15:14:46.499Z,89.10
2018-03-17T15:17:14.868Z,89.30
2018-03-17T15:19:43.141Z,90.00
2018-03-17T15:22:11.346Z,89.30
2018-03-17T15:24:39.909Z,89.60
2018-03-17T15:27:08.208Z,90.00
2018-03-17T15:29:36.429Z,90.40
2018-03-17T15:32:05.434Z,90.30
2018-03-17T15:34:34.483Z,89.80
2018-03-17T15:37:02.712Z,89.80
2018-03-17T15:39:30.985Z,90.10
2018-03-17T15:41:59.222Z,89.50
2018-03-17T15:44:27.529Z,89.20
2018-03-17T15:46:56.499Z,89.00
2018-03-17T15:49:24.888Z,88.90
2018-03-17T15:51:53.933Z,88.20
2018-03-17T15:54:22.319Z,88.10
2018-03-17T15:56:51.216Z,89.30
2018-03-17T15:59:19.529Z,90.00
2018-03-17T16:01:48.525Z,90.10
2018-03-17T16:04:17.400Z,90.10
2018-03-17T16:06:45.621Z,90.30
2018-03-17T16:09:14.377Z,90.00
2018-03-17T16:11:42.591Z,90.20
2018-03-17T16:14:10.924Z,90.10
2018-03-17T16:16:39.270Z,89.90
2018-03-17T16:19:07.580Z,90.50
2018-03-17T16:21:35.817Z,90.20
2018-03-17T16:24:04.060Z,90.40
2018-03-17T16:26:33.075Z,90.00
2018-03-17T16:29:01.320Z,89.90
2018-03-17T16:31:30.322Z,90.40
2018-03-17T16:33:58.598Z,90.40
2018-03-17T16:36:26.837Z,90.10
2018-03-17T16:38:55.045Z,89.20
2018-03-17T16:41:23.346Z,90.00
2018-03-17T16:43:51.634Z,90.00
2018-03-17T16:46:19.841Z,90.10
2018-03-17T16:48:48.073Z,89.10
2018-03-17T16:51:19.834Z,89.60
2018-03-17T16:53:48.121Z,89.60
2018-03-17T16:56:16.429Z,88.70
2018-03-17T16:58:44.685Z,89.00
2018-03-17T17:01:12.943Z,88.50
2018-03-17T17:03:43.752Z,88.90
2018-03-17T17:06:12.173Z,89.60
2018-03-17T17:08:40.401Z,89.40
2018-03-17T17:11:08.678Z,88.90
2018-03-17T17:13:36.901Z,89.40
2018-03-17T17:16:05.161Z,90.00
2018-03-17T17:18:33.468Z,90.40
2018-03-17T17:21:01.781Z,90.10
2018-03-17T17:23:30.025Z,89.30
2018-03-17T17:25:58.345Z,89.10
2018-03-17T17:28:26.623Z,88.80
2018-03-17T17:30:54.817Z,89.70
2018-03-17T17:33:23.283Z,89.40
2018-03-17T17:35:51.555Z,89.60
2018-03-17T17:38:19.914Z,88.40
2018-03-17T17:40:48.971Z,87.60
2018-03-17T17:43:17.236Z,87.60
2018-03-17T17:45:45.509Z,87.50
2018-03-17T17:48:14.504Z,88.10
2018-03-17T17:50:44.087Z,88.20
2018-03-17T17:53:16.542Z,88.10
2018-03-17T17:55:44.858Z,87.50
2018-03-17T17:58:13.124Z,88.10
2018-03-17T18:00:41.477Z,89.30
2018-03-17T18:03:09.701Z,89.40
2018-03-17T18:05:37.900Z,88.60
2018-03-17T18:08:06.149Z,88.00
2018-03-17T18:10:34.381Z,87.60
2018-03-17T18:13:02.588Z,87.10
2018-03-17T18:15:30.829Z,88.40
2018-03-17T18:17:59.036Z,87.40
2018-03-17T18:20:27.262Z,87.40
2018-03-17T18:22:56.276Z,88.70
2018-03-17T18:25:25.342Z,88.80
2018-03-17T18:27:53.714Z,88.80
2018-03-17T18:30:21.969Z,87.90
2018-03-17T18:32:50.287Z,87.30
2018-03-17T18:35:19.310Z,86.10
2018-03-17T18:37:47.553Z,86.20
2018-03-17T18:40:16.591Z,86.60
2018-03-17T18:42:44.822Z,86.60
2018-03-17T18:45:15.146Z,86.30
2018-03-17T18:47:43.323Z,86.30
2018-03-17T18:50:13.176Z,87.90
2018-03-17T18:52:42.341Z,86.90
2018-03-17T18:55:11.542Z,86.40
2018-03-17T18:57:39.761Z,86.40
2018-03-17T19:00:08.302Z,86.00
2018-03-17T19:02:36.510Z,86.90
2018-03-17T19:05:04.786Z,85.70
2018-03-17T19:07:33.074Z,85.70
2018-03-17T19:10:01.314Z,86.60
2018-03-17T19:12:29.562Z,85.00
2018-03-17T19:14:58.624Z,86.60
2018-03-17T19:17:26.837Z,86.60
2018-03-17T19:19:55.082Z,86.80
2018-03-17T19:22:23.348Z,86.10
2018-03-17T19:24:51.567Z,85.80
2018-03-17T19:27:20.360Z,85.70
2018-03-17T19:29:49.420Z,87.20
2018-03-17T19:32:17.619Z,87.10
2018-03-17T19:34:46.801Z,86.00
2018-03-17T19:37:15.106Z,86.00
2018-03-17T19:39:44.128Z,84.90
2018-03-17T19:42:12.443Z,84.90
2018-03-17T19:44:40.809Z,87.00
2018-03-17T19:47:09.014Z,86.30
2018-03-17T19:49:37.269Z,86.60
2018-03-17T19:52:05.511Z,84.60
2018-03-17T19:56:57.523Z,85.40
2018-03-17T19:59:26.631Z,84.30
2018-03-17T20:01:55.613Z,86.10
2018-03-17T20:04:24.634Z,85.20
2018-03-17T20:06:52.886Z,85.20
2018-03-17T20:09:21.856Z,85.20
2018-03-17T20:11:50.074Z,85.30
2018-03-17T20:14:18.367Z,84.90
2018-03-17T20:16:46.553Z,83.60
2018-03-17T20:19:14.910Z,85.70
2018-03-17T20:21:44.012Z,86.40
2018-03-17T20:24:12.317Z,86.40
2018-03-17T20:26:40.537Z,86.10
2018-03-17T20:29:09.541Z,85.30
2018-03-17T20:31:37.745Z,85.30
2018-03-17T20:34:05.999Z,85.00
2018-03-17T20:36:34.329Z,85.40
2018-03-17T20:39:02.574Z,86.00
2018-03-17T20:41:30.821Z,85.40
2018-03-17T20:43:59.095Z,85.70
2018-03-17T20:46:27.687Z,84.60
2018-03-17T20:48:56.005Z,84.40
2018-03-17T20:51:24.365Z,85.60
2018-03-17T20:53:52.595Z,86.00
2018-03-17T20:56:20.785Z,86.00
2018-03-17T20:58:49.125Z,84.40
2018-03-17T21:01:17.434Z,85.70
2018-03-17T21:03:46.458Z,87.10
2018-03-17T21:06:14.787Z,87.00
2018-03-17T21:08:43.053Z,85.20
2018-03-17T21:11:11.416Z,86.10
2018-03-17T21:13:39.696Z,87.50
2018-03-17T21:16:08.124Z,85.90
2018-03-17T21:18:36.341Z,84.80
2018-03-17T21:21:04.654Z,85.20
2018-03-17T21:23:33.680Z,86.40
2018-03-17T21:26:02.100Z,86.40
2018-03-17T21:28:30.488Z,85.40
2018-03-17T21:30:58.696Z,85.50
2018-03-17T21:33:26.966Z,86.60
2018-03-17T21:35:55.977Z,84.90
2018-03-17T21:38:24.180Z,84.90
2018-03-17T21:40:52.586Z,86.20
2018-03-17T21:43:20.980Z,85.40
2018-03-17T21:45:49.203Z,85.60
2018-03-17T21:48:17.618Z,87.00
2018-03-17T21:50:46.741Z,85.90
2018-03-17T21:53:15.808Z,84.80
2018-03-17T21:55:44.114Z,84.80
2018-03-17T21:58:13.227Z,86.40
2018-03-17T22:00:41.537Z,86.40
2018-03-17T22:03:10.583Z,83.30
2018-03-17T22:05:39.599Z,85.30
2018-03-17T22:08:07.872Z,85.30
2018-03-17T22:10:36.390Z,85.10
2018-03-17T22:13:05.611Z,83.70
2018-03-17T22:15:33.986Z,83.70
2018-03-17T22:18:02.177Z,87.40
2018-03-17T22:20:31.467Z,85.70
2018-03-17T22:22:59.689Z,85.70
2018-03-17T22:25:28.818Z,86.20
2018-03-17T22:27:57.130Z,86.20
2018-03-17T22:30:26.103Z,85.70
2018-03-17T22:32:54.500Z,85.70
2018-03-17T22:35:24.000Z,85.50
2018-03-17T22:37:52.310Z,85.00
2018-03-17T22:40:21.591Z,83.60
2018-03-17T22:42:49.847Z,83.20
2018-03-17T22:45:18.065Z,84.90
2018-03-17T22:47:46.271Z,86.20
2018-03-17T22:50:15.090Z,86.70
2018-03-17T22:52:44.212Z,83.00
2018-03-17T22:55:12.501Z,86.60
2018-03-17T22:57:40.804Z,84.70
2018-03-17T23:00:09.706Z,85.20
2018-03-17T23:02:38.141Z,86.80
2018-03-17T23:05:07.216Z,85.40
2018-03-17T23:07:35.722Z,85.40
2018-03-17T23:10:04.850Z,86.90
2018-03-17T23:12:33.213Z,86.90
2018-03-17T23:15:01.432Z,84.40
2018-03-17T23:17:29.746Z,87.30
2018-03-17T23:19:58.772Z,84.60
2018-03-17T23:22:26.981Z,84.60
2018-03-17T23:24:55.192Z,87.90
2018-03-17T23:27:23.550Z,86.80
2018-03-17T23:29:52.718Z,84.90
2018-03-17T23:32:21.330Z,84.70
2018-03-17T23:34:49.755Z,86.10
2018-03-17T23:37:18.134Z,84.50
2018-03-17T23:39:46.391Z,84.80
2018-03-17T23:42:15.520Z,86.90
2018-03-17T23:44:43.987Z,86.90
2018-03-17T23:47:12.292Z,87.80
2018-03-17T23:49:40.794Z,87.70
2018-03-17T23:52:09.086Z,87.50
2018-03-17T23:54:38.833Z,88.10
2018-03-17T23:57:07.715Z,86.20
2018-03-17T23:59:37.137Z,86.40
